Time;durP1;ratioP1;P1;durP2;ratioP2;P2;SDS_P1;SDS_P2;PMS_P1;PMS_P2;Temp;Humidity;BMP_temperature;BMP_pressure;BME280_temperature;BME280_humidity;BME280_pressure;Samples;Min_cycle;Max_cycle;Signal;HPM_P1;HPM_P2
2023/09/21 00:01:11;;;;;;;5.80;1.70;;;;;;;;;;4997600;28;88994;-60
2023/09/21 00:03:41;;;;;;;5.55;1.92;;;;;;;;;;4997341;28;89154;-59
2023/09/21 00:06:09;;;;;;;;;;;;;;;;;;4998550;28;88952;-59
2023/09/21 00:08:36;;;;;;;3.60;1.70;;;;;;;;;;5001645;28;117831;-61
2023/09/21 00:11:05;;;;;;;1.75;1.42;;;;;;;;;;4999213;28;87970;-61
2023/09/21 00:13:32;;;;;;;3.75;1.92;;;;;;;;;;4997180;28;88864;-61
2023/09/21 00:16:00;;;;;;;7.05;1.73;;;;;;;;;;4997524;28;88919;-59
2023/09/21 00:18:29;;;;;;;9.82;1.83;;;;;;;;;;4994468;28;88129;-61
2023/09/21 00:20:57;;;;;;;2.72;1.80;;;;;;;;;;4997882;28;90937;-60
2023/09/21 00:23:24;;;;;;;2.65;1.45;;;;;;;;;;4997111;28;88623;-61
2023/09/21 00:25:58;;;;;;;4.05;1.70;;;;;;;;;;4994351;28;88472;-61
2023/09/21 00:28:25;;;;;;;2.65;1.77;;;;;;;;;;4992421;28;88143;-60
2023/09/21 00:30:52;;;;;;;5.38;1.92;;;;;;;;;;4999356;28;88238;-60
2023/09/21 00:33:20;;;;;;;5.25;1.65;;;;;;;;;;4995209;28;88808;-61
2023/09/21 00:35:47;;;;;;;11.35;2.67;;;;;;;;;;4991615;28;90108;-60
2023/09/21 00:38:16;;;;;;;7.03;1.70;;;;;;;;;;4993698;28;88806;-60
2023/09/21 00:40:43;;;;;;;5.45;1.50;;;;;;;;;;4989657;28;89490;-61
2023/09/21 00:43:10;;;;;;;4.18;1.40;;;;;;;;;;4993167;28;88987;-61
2023/09/21 00:45:37;;;;;;;3.78;1.50;;;;;;;;;;4995293;28;88947;-61
2023/09/21 00:48:07;;;;;;;7.55;1.95;;;;;;;;;;4994202;28;89543;-61
2023/09/21 00:50:35;;;;;;;3.95;1.83;;;;;;;;;;4996161;28;89191;-61
2023/09/21 00:53:05;;;;;;;6.63;1.92;;;;;;;;;;4997519;28;88889;-60
2023/09/21 00:55:39;;;;;;;5.90;1.98;;;;;;;;;;4996546;28;88187;-60
2023/09/21 00:58:07;;;;;;;9.63;1.88;;;;;;;;;;4995646;28;88091;-60
2023/09/21 01:00:33;;;;;;;4.50;1.52;;;;;;;;;;4997077;28;88786;-60
2023/09/21 01:03:07;;;;;;;5.05;1.80;;;;;;;;;;4996232;28;89514;-60
2023/09/21 01:05:34;;;;;;;2.38;1.63;;;;;;;;;;4994004;28;89052;-61
2023/09/21 01:08:01;;;;;;;4.50;1.67;;;;;;;;;;4996491;28;89363;-60
2023/09/21 01:10:28;;;;;;;9.70;1.90;;;;;;;;;;4995811;28;88061;-60
2023/09/21 01:12:55;;;;;;;1.83;1.50;;;;;;;;;;4996688;28;88155;-61
2023/09/21 01:15:21;;;;;;;2.65;1.52;;;;;;;;;;4996340;28;88970;-61
2023/09/21 01:17:48;;;;;;;4.25;1.50;;;;;;;;;;4996318;28;88101;-60
2023/09/21 01:20:28;;;;;;;5.65;1.70;;;;;;;;;;4997596;28;89523;-61
2023/09/21 01:23:11;;;;;;;4.47;1.57;;;;;;;;;;4996882;28;88631;-61
2023/09/21 01:25:41;;;;;;;3.22;1.70;;;;;;;;;;4990239;28;88539;-61
2023/09/21 01:28:11;;;;;;;;;;;;;;;;;;4994681;28;89105;-58
2023/09/21 01:30:38;;;;;;;5.55;1.73;;;;;;;;;;4993250;28;116878;-61
2023/09/21 01:33:09;;;;;;;5.45;1.48;;;;;;;;;;4992846;28;89673;-61
2023/09/21 01:35:36;;;;;;;5.70;1.70;;;;;;;;;;4994978;28;88442;-61
2023/09/21 01:38:05;;;;;;;6.05;1.77;;;;;;;;;;4995399;28;89083;-60
2023/09/21 01:40:34;;;;;;;4.75;1.88;;;;;;;;;;4991813;28;88729;-60
2023/09/21 01:43:03;;;;;;;4.18;1.83;;;;;;;;;;4991358;28;89022;-61
2023/09/21 01:45:30;;;;;;;8.50;2.30;;;;;;;;;;4995690;28;87619;-60
2023/09/21 01:47:56;;;;;;;4.43;1.92;;;;;;;;;;4996426;28;88109;-60
2023/09/21 01:50:24;;;;;;;6.30;1.70;;;;;;;;;;4990937;28;89111;-60
2023/09/21 01:52:50;;;;;;;4.95;1.70;;;;;;;;;;4993500;28;88746;-61
2023/09/21 01:55:17;;;;;;;3.75;1.92;;;;;;;;;;4993170;28;91838;-62
2023/09/21 01:57:43;;;;;;;2.95;1.50;;;;;;;;;;4995068;28;88097;-61
2023/09/21 02:00:25;;;;;;;3.38;1.88;;;;;;;;;;4993891;28;89754;-62
2023/09/21 02:02:52;;;;;;;4.18;1.63;;;;;;;;;;4993792;28;88152;-62
2023/09/21 02:05:19;;;;;;;7.00;2.20;;;;;;;;;;4994001;28;88268;-62
2023/09/21 02:07:46;;;;;;;2.20;1.45;;;;;;;;;;4994018;28;89075;-62
2023/09/21 02:10:15;;;;;;;5.72;1.70;;;;;;;;;;4994496;28;88514;-62
2023/09/21 02:12:52;;;;;;;1.40;1.30;;;;;;;;;;4995470;28;88366;-62
2023/09/21 02:15:19;;;;;;;7.57;1.98;;;;;;;;;;4991068;28;88724;-62
2023/09/21 02:17:45;;;;;;;2.72;1.77;;;;;;;;;;4989655;28;89588;-62
2023/09/21 02:20:16;;;;;;;6.13;1.83;;;;;;;;;;4995219;28;88934;-62
2023/09/21 02:22:49;;;;;;;3.70;1.75;;;;;;;;;;4991356;28;91518;-62
2023/09/21 02:25:16;;;;;;;2.17;1.77;;;;;;;;;;4993328;28;88091;-61
2023/09/21 02:27:47;;;;;;;5.03;1.52;;;;;;;;;;4991778;28;88631;-62
2023/09/21 02:30:17;;;;;;;7.88;1.98;;;;;;;;;;4993855;28;89998;-62
2023/09/21 02:32:45;;;;;;;5.45;1.70;;;;;;;;;;4993822;28;88221;-63
2023/09/21 02:35:15;;;;;;;3.20;1.67;;;;;;;;;;4995275;28;89803;-63
2023/09/21 02:37:43;;;;;;;10.00;2.33;;;;;;;;;;4994938;28;88956;-62
2023/09/21 02:40:10;;;;;;;6.00;1.88;;;;;;;;;;4993999;28;89826;-62
2023/09/21 02:42:37;;;;;;;3.30;1.73;;;;;;;;;;4995560;28;88847;-62
2023/09/21 02:45:04;;;;;;;8.40;1.67;;;;;;;;;;4994233;28;88436;-61
2023/09/21 02:47:31;;;;;;;2.97;1.60;;;;;;;;;;4991569;28;88588;-61
2023/09/21 02:49:58;;;;;;;4.43;1.80;;;;;;;;;;4991882;28;89856;-61
2023/09/21 02:52:25;;;;;;;5.00;1.80;;;;;;;;;;4993321;28;89807;-62
2023/09/21 02:54:53;;;;;;;3.50;1.60;;;;;;;;;;4992147;28;88372;-61
2023/09/21 02:57:19;;;;;;;4.60;1.85;;;;;;;;;;4993611;28;89005;-63
2023/09/21 02:59:45;;;;;;;6.00;1.80;;;;;;;;;;4996008;28;87882;-64
2023/09/21 03:02:12;;;;;;;3.63;1.67;;;;;;;;;;4995448;28;88219;-63
2023/09/21 03:04:38;;;;;;;2.83;1.70;;;;;;;;;;5001498;28;88957;-62
2023/09/21 03:07:05;;;;;;;2.92;1.58;;;;;;;;;;4996327;28;89570;-62
2023/09/21 03:09:31;;;;;;;3.35;1.60;;;;;;;;;;4997359;28;89972;-60
2023/09/21 03:11:59;;;;;;;7.15;2.08;;;;;;;;;;4998267;28;88027;-62
2023/09/21 03:14:26;;;;;;;7.40;1.83;;;;;;;;;;4997815;28;88874;-62
2023/09/21 03:16:52;;;;;;;4.13;1.83;;;;;;;;;;4998761;28;89015;-62
2023/09/21 03:19:19;;;;;;;5.15;1.77;;;;;;;;;;4998398;28;88111;-63
2023/09/21 03:21:45;;;;;;;2.25;1.85;;;;;;;;;;4998203;28;88788;-62
2023/09/21 03:24:11;;;;;;;8.50;1.60;;;;;;;;;;5000894;28;89290;-62
2023/09/21 03:26:38;;;;;;;5.30;1.85;;;;;;;;;;4996843;28;88879;-62
2023/09/21 03:29:08;;;;;;;3.10;1.52;;;;;;;;;;4993243;28;89975;-62
2023/09/21 03:31:36;;;;;;;4.47;1.37;;;;;;;;;;4994309;28;88943;-62
2023/09/21 03:34:02;;;;;;;3.03;1.58;;;;;;;;;;4996765;28;89489;-62
2023/09/21 03:36:29;;;;;;;2.47;1.80;;;;;;;;;;4994530;28;89981;-62
2023/09/21 03:38:56;;;;;;;2.22;1.52;;;;;;;;;;4991832;28;88068;-60
2023/09/21 03:41:23;;;;;;;6.25;1.60;;;;;;;;;;4990495;28;89348;-62
2023/09/21 03:43:49;;;;;;;1.40;1.30;;;;;;;;;;4996984;28;92308;-61
2023/09/21 03:46:16;;;;;;;3.45;1.50;;;;;;;;;;4999338;28;88144;-62
2023/09/21 03:48:43;;;;;;;2.45;1.80;;;;;;;;;;4990153;28;88217;-62
2023/09/21 03:51:10;;;;;;;1.90;1.48;;;;;;;;;;4992190;28;88153;-62
2023/09/21 03:53:37;;;;;;;2.55;1.50;;;;;;;;;;4995984;28;89685;-62
2023/09/21 03:56:04;;;;;;;1.55;1.45;;;;;;;;;;4995855;28;89688;-63
2023/09/21 03:58:30;;;;;;;6.40;1.50;;;;;;;;;;4993645;28;89973;-63
2023/09/21 04:01:04;;;;;;;2.35;1.60;;;;;;;;;;4992883;28;89780;-62
2023/09/21 04:03:30;;;;;;;6.28;1.50;;;;;;;;;;4996032;28;89549;-62
2023/09/21 04:06:09;;;;;;;2.55;1.67;;;;;;;;;;4997491;28;88070;-62
2023/09/21 04:08:35;;;;;;;3.72;1.80;;;;;;;;;;4999404;28;88928;-62
2023/09/21 04:11:01;;;;;;;4.03;1.45;;;;;;;;;;4995571;28;88389;-62
2023/09/21 04:13:28;;;;;;;4.15;1.60;;;;;;;;;;4994955;28;90028;-62
2023/09/21 04:15:54;;;;;;;4.07;1.80;;;;;;;;;;4995300;28;89505;-61
2023/09/21 04:18:20;;;;;;;8.02;2.00;;;;;;;;;;4997657;28;88105;-60
2023/09/21 04:20:51;;;;;;;3.60;1.60;;;;;;;;;;4994487;28;89412;-61
2023/09/21 04:23:35;;;;;;;2.08;1.67;;;;;;;;;;4995966;28;89074;-61
2023/09/21 04:26:02;;;;;;;6.88;1.60;;;;;;;;;;4996121;28;88037;-61
2023/09/21 04:28:28;;;;;;;1.90;1.70;;;;;;;;;;4994863;28;88645;-62
2023/09/21 04:30:54;;;;;;;4.97;2.22;;;;;;;;;;4997280;28;88967;-60
2023/09/21 04:33:21;;;;;;;8.30;1.83;;;;;;;;;;4995270;28;88863;-61
2023/09/21 04:35:47;;;;;;;3.50;1.90;;;;;;;;;;4993464;28;88058;-61
2023/09/21 04:38:14;;;;;;;1.67;1.50;;;;;;;;;;4995175;28;88022;-61
2023/09/21 04:40:40;;;;;;;3.83;1.80;;;;;;;;;;4991778;28;88753;-61
2023/09/21 04:43:06;;;;;;;2.22;1.60;;;;;;;;;;4995221;28;88925;-61
2023/09/21 04:45:34;;;;;;;1.70;1.60;;;;;;;;;;4995234;28;89071;-61
2023/09/21 04:48:03;;;;;;;3.20;2.28;;;;;;;;;;4992435;28;90912;-61
2023/09/21 04:50:30;;;;;;;3.45;2.03;;;;;;;;;;4992862;28;90589;-60
2023/09/21 04:52:57;;;;;;;4.80;1.67;;;;;;;;;;4995859;28;89217;-61
2023/09/21 04:55:23;;;;;;;4.03;1.67;;;;;;;;;;4994646;28;89008;-61
2023/09/21 04:57:50;;;;;;;3.65;2.08;;;;;;;;;;4998524;28;88435;-61
2023/09/21 05:00:16;;;;;;;4.75;2.00;;;;;;;;;;4997605;28;88707;-60
2023/09/21 05:02:43;;;;;;;4.75;2.00;;;;;;;;;;4995705;28;88337;-61
2023/09/21 05:05:10;;;;;;;5.72;1.77;;;;;;;;;;4996350;28;88332;-60
2023/09/21 05:07:37;;;;;;;2.88;1.48;;;;;;;;;;4992617;28;88795;-61
2023/09/21 05:10:07;;;;;;;7.40;2.08;;;;;;;;;;4995594;28;89723;-60
2023/09/21 05:12:34;;;;;;;4.43;1.90;;;;;;;;;;5000930;28;88022;-60
2023/09/21 05:15:00;;;;;;;9.80;2.20;;;;;;;;;;4999534;28;89240;-60
2023/09/21 05:17:27;;;;;;;4.85;1.90;;;;;;;;;;4996279;28;88194;-61
2023/09/21 05:19:53;;;;;;;5.65;1.67;;;;;;;;;;4996117;28;88948;-61
2023/09/21 05:22:20;;;;;;;1.90;1.35;;;;;;;;;;4996197;28;89313;-60
2023/09/21 05:24:47;;;;;;;5.60;1.60;;;;;;;;;;4993172;28;88844;-60
2023/09/21 05:27:13;;;;;;;3.08;1.60;;;;;;;;;;4994923;28;89305;-63
2023/09/21 05:29:40;;;;;;;3.33;1.83;;;;;;;;;;4996691;28;89991;-63
2023/09/21 05:32:06;;;;;;;5.30;2.13;;;;;;;;;;4994709;28;87932;-63
2023/09/21 05:34:32;;;;;;;5.20;2.03;;;;;;;;;;4997565;28;89792;-64
2023/09/21 05:36:59;;;;;;;7.50;2.00;;;;;;;;;;4991966;28;88507;-63
2023/09/21 05:39:26;;;;;;;3.15;1.77;;;;;;;;;;4992966;28;88739;-62
2023/09/21 05:41:52;;;;;;;3.13;1.67;;;;;;;;;;4993207;28;88861;-63
2023/09/21 05:44:21;;;;;;;10.60;2.10;;;;;;;;;;4990478;28;88794;-63
2023/09/21 05:46:51;;;;;;;13.85;2.10;;;;;;;;;;4992741;28;88829;-63
2023/09/21 05:49:24;;;;;;;3.63;1.70;;;;;;;;;;4994589;28;90203;-63
2023/09/21 05:51:54;;;;;;;3.20;1.90;;;;;;;;;;4991516;28;87845;-63
2023/09/21 05:54:23;;;;;;;6.13;2.10;;;;;;;;;;4994202;28;88007;-61
2023/09/21 05:56:51;;;;;;;12.38;4.13;;;;;;;;;;4990916;28;89634;-62
2023/09/21 05:59:17;;;;;;;3.72;1.60;;;;;;;;;;4992568;28;90250;-62
2023/09/21 06:01:44;;;;;;;3.97;1.90;;;;;;;;;;4996522;28;88965;-62
2023/09/21 06:04:12;;;;;;;3.03;1.88;;;;;;;;;;4994496;28;89208;-61
2023/09/21 06:06:39;;;;;;;5.30;1.70;;;;;;;;;;4995382;28;88671;-61
2023/09/21 06:09:07;;;;;;;6.05;1.98;;;;;;;;;;4993889;28;88742;-61
2023/09/21 06:11:34;;;;;;;4.45;2.10;;;;;;;;;;4995702;28;88228;-61
2023/09/21 06:14:02;;;;;;;5.85;2.28;;;;;;;;;;4991453;28;88763;-61
2023/09/21 06:16:29;;;;;;;5.28;2.30;;;;;;;;;;4994259;28;89320;-61
2023/09/21 06:18:55;;;;;;;3.17;1.88;;;;;;;;;;4994910;28;88915;-60
2023/09/21 06:21:21;;;;;;;2.83;1.88;;;;;;;;;;4994172;28;88918;-61
2023/09/21 06:23:49;;;;;;;3.40;2.10;;;;;;;;;;4989164;28;88878;-61
2023/09/21 06:26:16;;;;;;;3.50;1.85;;;;;;;;;;4994098;28;90499;-61
2023/09/21 06:28:43;;;;;;;3.72;2.13;;;;;;;;;;4991406;28;88953;-62
2023/09/21 06:31:13;;;;;;;5.30;2.22;;;;;;;;;;4993576;28;89499;-62
2023/09/21 06:33:39;;;;;;;5.25;2.25;;;;;;;;;;4994697;28;88695;-61
2023/09/21 06:36:13;;;;;;;6.10;2.03;;;;;;;;;;4983361;28;90207;-61
2023/09/21 06:38:42;;;;;;;4.20;1.95;;;;;;;;;;4988393;28;88084;-62
2023/09/21 06:41:12;;;;;;;8.13;2.50;;;;;;;;;;4992384;28;88767;-61
2023/09/21 06:43:42;;;;;;;4.20;2.20;;;;;;;;;;4990594;28;89220;-61
2023/09/21 06:46:09;;;;;;;9.98;1.92;;;;;;;;;;4990605;28;88643;-62
2023/09/21 06:48:36;;;;;;;4.00;2.38;;;;;;;;;;4990379;28;90729;-61
2023/09/21 06:51:05;;;;;;;6.13;1.95;;;;;;;;;;4995309;28;88849;-61
2023/09/21 06:53:32;;;;;;;5.18;2.30;;;;;;;;;;4993605;28;89410;-61
2023/09/21 06:55:58;;;;;;;3.50;2.00;;;;;;;;;;4994445;28;89683;-61
2023/09/21 06:58:25;;;;;;;4.55;2.05;;;;;;;;;;4993289;28;88122;-61
2023/09/21 07:00:51;;;;;;;4.70;2.13;;;;;;;;;;4994270;28;90188;-61
2023/09/21 07:03:18;;;;;;;4.63;2.03;;;;;;;;;;5000489;28;88997;-62
2023/09/21 07:05:48;;;;;;;4.85;2.50;;;;;;;;;;4990709;28;88731;-61
2023/09/21 07:08:15;;;;;;;;;;;;;;;;;;4994289;28;90212;-61
2023/09/21 07:10:43;;;;;;;5.97;2.47;;;;;;;;;;4991174;28;118795;-61
2023/09/21 07:13:10;;;;;;;6.53;2.40;;;;;;;;;;4982456;28;88973;-61
2023/09/21 07:15:37;;;;;;;5.65;2.28;;;;;;;;;;4990105;28;90008;-61
2023/09/21 07:18:05;;;;;;;9.50;2.60;;;;;;;;;;4992038;28;88472;-61
2023/09/21 07:20:32;;;;;;;8.15;2.30;;;;;;;;;;4991423;28;88774;-61
2023/09/21 07:22:59;;;;;;;4.55;2.67;;;;;;;;;;4987185;28;89986;-62
2023/09/21 07:25:25;;;;;;;1.70;1.10;;;;;;;;;;4991817;28;87986;-61
2023/09/21 07:27:54;;;;;;;3.35;1.08;;;;;;;;;;4987930;28;88957;-62
2023/09/21 07:30:21;;;;;;;2.28;1.02;;;;;;;;;;4995477;28;87407;-61
2023/09/21 07:32:49;;;;;;;0.90;0.80;;;;;;;;;;4992234;28;89241;-61
2023/09/21 07:35:15;;;;;;;1.23;0.70;;;;;;;;;;4988917;28;89414;-61
2023/09/21 07:37:46;;;;;;;3.72;1.17;;;;;;;;;;4988982;28;89091;-61
2023/09/21 07:40:13;;;;;;;1.48;0.73;;;;;;;;;;4991710;28;89453;-61
2023/09/21 07:42:42;;;;;;;2.65;0.80;;;;;;;;;;4981306;28;90144;-61
2023/09/21 07:45:09;;;;;;;1.23;0.65;;;;;;;;;;4999616;28;90078;-61
2023/09/21 07:47:37;;;;;;;3.42;1.33;;;;;;;;;;4987412;28;89232;-62
2023/09/21 07:50:07;;;;;;;0.65;0.60;;;;;;;;;;4990491;28;88203;-62
2023/09/21 07:52:34;;;;;;;1.63;0.60;;;;;;;;;;4993260;28;89101;-62
2023/09/21 07:55:02;;;;;;;1.75;0.55;;;;;;;;;;4991897;28;88545;-62
2023/09/21 07:57:32;;;;;;;1.17;0.85;;;;;;;;;;4988589;28;89267;-62
2023/09/21 07:59:59;;;;;;;1.48;0.73;;;;;;;;;;4993814;28;88829;-62
2023/09/21 08:02:27;;;;;;;1.70;0.70;;;;;;;;;;4995360;28;89527;-62
2023/09/21 08:04:57;;;;;;;2.95;0.93;;;;;;;;;;4995826;28;89773;-62
2023/09/21 08:07:26;;;;;;;1.02;0.60;;;;;;;;;;4998020;28;89419;-62
2023/09/21 08:09:56;;;;;;;1.17;0.55;;;;;;;;;;4997239;28;88076;-62
2023/09/21 08:12:24;;;;;;;1.27;0.60;;;;;;;;;;4996472;28;88627;-62
2023/09/21 08:14:50;;;;;;;1.15;0.60;;;;;;;;;;4997060;28;90241;-62
2023/09/21 08:17:19;;;;;;;2.83;0.50;;;;;;;;;;4991082;28;88205;-62
2023/09/21 08:19:46;;;;;;;2.30;0.65;;;;;;;;;;4996901;28;89770;-62
2023/09/21 08:22:14;;;;;;;0.75;0.63;;;;;;;;;;4997268;28;88948;-62
2023/09/21 08:24:41;;;;;;;1.50;0.60;;;;;;;;;;4996127;28;88123;-62
2023/09/21 08:27:08;;;;;;;0.82;0.57;;;;;;;;;;4996984;28;89845;-62
2023/09/21 08:29:34;;;;;;;0.70;0.60;;;;;;;;;;4997309;28;88964;-62
2023/09/21 08:32:02;;;;;;;3.80;0.85;;;;;;;;;;4995316;28;88753;-62
2023/09/21 08:34:28;;;;;;;2.03;0.57;;;;;;;;;;4993501;28;90091;-60
2023/09/21 08:36:54;;;;;;;3.45;0.80;;;;;;;;;;4996159;28;88426;-62
2023/09/21 08:39:21;;;;;;;2.80;0.85;;;;;;;;;;4994014;28;89903;-62
2023/09/21 08:41:49;;;;;;;1.15;0.63;;;;;;;;;;4995275;28;88982;-62
2023/09/21 08:44:19;;;;;;;1.55;0.63;;;;;;;;;;4996594;28;87343;-62
2023/09/21 08:46:45;;;;;;;0.87;0.70;;;;;;;;;;4997050;28;88837;-62
2023/09/21 08:49:13;;;;;;;1.67;0.70;;;;;;;;;;4990059;28;89299;-62
2023/09/21 08:51:40;;;;;;;1.77;0.80;;;;;;;;;;4992619;28;88992;-62
2023/09/21 08:54:07;;;;;;;1.35;0.70;;;;;;;;;;4995197;28;89007;-63
2023/09/21 08:56:36;;;;;;;1.15;0.80;;;;;;;;;;4993401;28;87975;-62
2023/09/21 08:59:04;;;;;;;4.28;0.80;;;;;;;;;;4989803;28;88107;-61
2023/09/21 09:01:30;;;;;;;2.80;1.13;;;;;;;;;;4989980;28;89143;-62
2023/09/21 09:03:58;;;;;;;2.00;0.90;;;;;;;;;;4995182;28;88342;-62
2023/09/21 09:06:27;;;;;;;3.17;0.70;;;;;;;;;;4999003;28;89628;-62
2023/09/21 09:08:54;;;;;;;1.65;0.98;;;;;;;;;;4988798;28;89494;-62
2023/09/21 09:11:37;;;;;;;2.05;0.63;;;;;;;;;;4998051;28;88916;-62
2023/09/21 09:14:10;;;;;;;1.38;0.60;;;;;;;;;;4995684;28;88877;-62
2023/09/21 09:16:36;;;;;;;6.00;1.00;;;;;;;;;;4990379;28;90360;-62
2023/09/21 09:19:05;;;;;;;1.42;0.80;;;;;;;;;;4991226;28;89563;-62
2023/09/21 09:21:31;;;;;;;1.88;0.77;;;;;;;;;;4992980;28;89124;-62
2023/09/21 09:23:59;;;;;;;2.33;0.80;;;;;;;;;;4995228;28;88108;-62
2023/09/21 09:26:26;;;;;;;2.20;0.93;;;;;;;;;;4990795;28;88670;-62
2023/09/21 09:29:02;;;;;;;6.68;1.27;;;;;;;;;;4995187;28;90027;-62
2023/09/21 09:31:28;;;;;;;4.13;1.10;;;;;;;;;;4991306;28;88118;-62
2023/09/21 09:33:57;;;;;;;2.25;0.80;;;;;;;;;;4998051;28;88837;-62
2023/09/21 09:36:24;;;;;;;5.13;0.80;;;;;;;;;;4995521;28;88196;-62
2023/09/21 09:38:52;;;;;;;6.53;1.23;;;;;;;;;;4993242;28;88015;-62
2023/09/21 09:41:18;;;;;;;2.08;0.85;;;;;;;;;;4993377;28;90779;-62
2023/09/21 09:43:50;;;;;;;2.03;0.90;;;;;;;;;;4991084;28;89143;-62
2023/09/21 09:46:19;;;;;;;3.47;1.20;;;;;;;;;;4995797;28;88699;-62
2023/09/21 09:48:45;;;;;;;2.53;0.98;;;;;;;;;;4993425;28;88630;-62
2023/09/21 09:51:13;;;;;;;4.38;1.20;;;;;;;;;;4991744;28;89036;-62
2023/09/21 09:53:40;;;;;;;6.22;1.20;;;;;;;;;;4993236;28;89872;-62
2023/09/21 09:56:10;;;;;;;1.42;0.90;;;;;;;;;;4994897;28;89979;-62
2023/09/21 09:58:42;;;;;;;3.22;1.10;;;;;;;;;;4992884;28;89978;-62
2023/09/21 10:01:09;;;;;;;1.95;1.13;;;;;;;;;;4988733;28;89057;-61
2023/09/21 10:03:38;;;;;;;1.77;1.17;;;;;;;;;;4989850;28;89176;-62
2023/09/21 10:06:08;;;;;;;6.72;1.40;;;;;;;;;;4989943;28;90756;-62
2023/09/21 10:08:39;;;;;;;3.75;1.30;;;;;;;;;;4990818;28;88954;-62
2023/09/21 10:11:09;;;;;;;1.55;1.00;;;;;;;;;;4993319;28;88133;-62
2023/09/21 10:13:47;;;;;;;3.63;1.20;;;;;;;;;;4988965;28;89251;-61
2023/09/21 10:16:13;;;;;;;2.33;1.27;;;;;;;;;;4985118;28;87965;-62
2023/09/21 10:18:41;;;;;;;5.78;1.40;;;;;;;;;;4996082;28;88248;-62
2023/09/21 10:21:29;;;;;;;4.45;1.23;;;;;;;;;;4989843;28;89343;-62
2023/09/21 10:24:16;;;;;;;4.20;1.30;;;;;;;;;;4980875;28;87843;-64
2023/09/21 10:26:44;;;;;;;3.80;1.80;;;;;;;;;;4994312;28;88312;-64
2023/09/21 10:29:12;;;;;;;2.38;1.08;;;;;;;;;;4995801;28;90322;-64
2023/09/21 10:31:41;;;;;;;5.07;1.60;;;;;;;;;;4993753;28;88763;-64
2023/09/21 10:34:09;;;;;;;3.00;1.30;;;;;;;;;;4988767;28;89433;-64
2023/09/21 10:36:46;;;;;;;5.32;1.55;;;;;;;;;;4994804;28;89119;-63
2023/09/21 10:39:12;;;;;;;3.65;1.70;;;;;;;;;;4993505;28;88301;-63
2023/09/21 10:41:45;;;;;;;2.67;1.55;;;;;;;;;;4991927;28;89141;-63
2023/09/21 10:44:13;;;;;;;2.70;1.25;;;;;;;;;;4991831;28;88407;-63
2023/09/21 10:46:43;;;;;;;9.10;2.80;;;;;;;;;;4995318;28;90129;-63
2023/09/21 10:49:10;;;;;;;;;;;;;;;;;;4992085;28;87443;-64
2023/09/21 10:51:39;;;;;;;1.90;1.02;;;;;;;;;;4991092;28;118415;-63
2023/09/21 10:54:06;;;;;;;4.53;1.38;;;;;;;;;;4991027;28;88617;-63
2023/09/21 10:56:36;;;;;;;2.67;1.50;;;;;;;;;;4991584;28;88736;-63
2023/09/21 10:59:02;;;;;;;2.50;1.38;;;;;;;;;;4994272;28;89244;-63
2023/09/21 11:01:29;;;;;;;4.07;1.10;;;;;;;;;;4992551;28;89752;-63
2023/09/21 11:03:58;;;;;;;4.53;1.58;;;;;;;;;;4995733;28;88973;-63
2023/09/21 11:06:27;;;;;;;2.50;1.60;;;;;;;;;;4995193;28;89771;-63
2023/09/21 11:08:55;;;;;;;6.07;2.00;;;;;;;;;;4993976;28;89197;-63
2023/09/21 11:11:22;;;;;;;6.03;1.65;;;;;;;;;;4992958;28;88376;-60
2023/09/21 11:13:51;;;;;;;5.82;1.45;;;;;;;;;;4990610;28;88971;-58
2023/09/21 11:16:18;;;;;;;2.03;1.60;;;;;;;;;;4991052;28;88978;-60
2023/09/21 11:18:44;;;;;;;4.95;1.45;;;;;;;;;;4994117;28;88022;-59
2023/09/21 11:21:11;;;;;;;2.60;1.40;;;;;;;;;;4992018;28;89101;-59
2023/09/21 11:23:42;;;;;;;3.03;1.30;;;;;;;;;;4995455;28;90018;-59
2023/09/21 11:26:14;;;;;;;5.28;1.50;;;;;;;;;;5000165;28;89311;-59
2023/09/21 11:28:42;;;;;;;4.82;1.52;;;;;;;;;;5002635;28;90658;-59
2023/09/21 11:31:11;;;;;;;1.83;1.27;;;;;;;;;;4997599;28;88944;-59
2023/09/21 11:33:39;;;;;;;3.30;1.40;;;;;;;;;;4996947;28;88994;-57
2023/09/21 11:36:06;;;;;;;2.25;1.25;;;;;;;;;;4996207;28;89047;-59
2023/09/21 11:38:36;;;;;;;4.20;1.10;;;;;;;;;;4998955;28;87912;-58
2023/09/21 11:41:06;;;;;;;1.47;1.17;;;;;;;;;;4998146;28;89192;-58
2023/09/21 11:43:32;;;;;;;2.47;1.30;;;;;;;;;;4997240;28;89052;-58
2023/09/21 11:46:03;;;;;;;5.20;1.38;;;;;;;;;;4999071;28;89331;-58
2023/09/21 11:48:29;;;;;;;;;;;;;;;;;;4996537;28;89007;-57
2023/09/21 11:50:56;;;;;;;3.22;1.10;;;;;;;;;;4996967;28;118540;-57
2023/09/21 11:53:22;;;;;;;4.70;1.23;;;;;;;;;;4995990;28;89707;-58
2023/09/21 11:55:49;;;;;;;2.67;1.15;;;;;;;;;;4992148;28;88924;-59
2023/09/21 11:58:15;;;;;;;2.00;0.90;;;;;;;;;;4997116;28;88175;-58
2023/09/21 12:00:49;;;;;;;1.00;0.90;;;;;;;;;;4995955;28;88811;-57
2023/09/21 12:03:22;;;;;;;5.53;1.05;;;;;;;;;;4996312;28;90904;-58
2023/09/21 12:05:51;;;;;;;4.25;1.02;;;;;;;;;;4993965;28;89312;-59
2023/09/21 12:08:21;;;;;;;4.63;1.20;;;;;;;;;;5000378;28;88715;-58
2023/09/21 12:10:50;;;;;;;4.17;1.30;;;;;;;;;;4997407;28;89021;-58
2023/09/21 12:13:17;;;;;;;2.58;1.08;;;;;;;;;;4996126;28;89458;-58
2023/09/21 12:15:43;;;;;;;1.85;0.90;;;;;;;;;;4996769;28;88916;-57
2023/09/21 12:18:10;;;;;;;1.50;1.00;;;;;;;;;;4998236;28;88689;-59
2023/09/21 12:20:44;;;;;;;2.55;1.13;;;;;;;;;;4996986;28;89809;-59
2023/09/21 12:23:12;;;;;;;1.10;0.97;;;;;;;;;;4986972;28;88978;-59
2023/09/21 12:25:39;;;;;;;3.47;0.98;;;;;;;;;;4995218;28;89115;-59
2023/09/21 12:28:07;;;;;;;8.60;1.35;;;;;;;;;;4995179;28;88712;-59
2023/09/21 12:30:33;;;;;;;2.50;1.45;;;;;;;;;;4999894;28;89981;-59
2023/09/21 12:32:59;;;;;;;2.70;1.23;;;;;;;;;;4996621;28;88683;-59
2023/09/21 12:35:26;;;;;;;1.23;1.10;;;;;;;;;;4994747;28;91531;-58
2023/09/21 12:37:52;;;;;;;2.17;1.20;;;;;;;;;;4993783;28;88034;-59
2023/09/21 12:40:21;;;;;;;1.48;1.35;;;;;;;;;;4996526;28;89732;-58
2023/09/21 12:42:48;;;;;;;4.82;1.27;;;;;;;;;;4992024;28;90190;-59
2023/09/21 12:45:15;;;;;;;8.52;1.10;;;;;;;;;;4996092;28;88121;-60
2023/09/21 12:47:42;;;;;;;4.28;1.38;;;;;;;;;;4996497;28;88574;-60
2023/09/21 12:50:09;;;;;;;1.98;1.25;;;;;;;;;;4997274;28;88940;-60
2023/09/21 12:52:37;;;;;;;3.90;1.30;;;;;;;;;;4999594;28;87929;-60
2023/09/21 12:55:06;;;;;;;7.10;1.40;;;;;;;;;;4990635;28;89090;-59
2023/09/21 12:57:36;;;;;;;2.17;1.30;;;;;;;;;;4997221;28;88174;-59
2023/09/21 13:00:17;;;;;;;3.47;1.30;;;;;;;;;;4995558;28;88797;-59
2023/09/21 13:02:44;;;;;;;3.10;1.60;;;;;;;;;;4996668;28;89258;-60
2023/09/21 13:05:13;;;;;;;1.33;1.10;;;;;;;;;;4991830;28;89016;-59
2023/09/21 13:07:39;;;;;;;3.78;1.35;;;;;;;;;;4996383;28;89822;-60
2023/09/21 13:10:06;;;;;;;1.20;1.10;;;;;;;;;;4995917;28;90014;-60
2023/09/21 13:12:34;;;;;;;2.25;1.40;;;;;;;;;;4995183;28;88227;-60
2023/09/21 13:15:01;;;;;;;1.95;1.35;;;;;;;;;;4987231;28;89509;-59
2023/09/21 13:17:27;;;;;;;1.30;1.20;;;;;;;;;;4995195;28;88951;-59
2023/09/21 13:19:54;;;;;;;3.00;1.23;;;;;;;;;;4995787;28;88132;-59
2023/09/21 13:22:23;;;;;;;3.30;1.20;;;;;;;;;;4993745;28;89927;-60
2023/09/21 13:24:49;;;;;;;4.47;1.23;;;;;;;;;;4992618;28;88701;-60
2023/09/21 13:27:17;;;;;;;2.35;1.05;;;;;;;;;;4994156;28;91171;-60
2023/09/21 13:29:45;;;;;;;3.70;1.25;;;;;;;;;;4994920;28;87899;-59
2023/09/21 13:32:11;;;;;;;2.38;1.38;;;;;;;;;;4996492;28;88480;-59
2023/09/21 13:34:38;;;;;;;2.30;1.33;;;;;;;;;;4995150;28;88789;-60
2023/09/21 13:37:04;;;;;;;3.17;1.35;;;;;;;;;;4996116;28;89025;-60
2023/09/21 13:39:34;;;;;;;1.35;1.25;;;;;;;;;;4994376;28;88727;-59
2023/09/21 13:42:00;;;;;;;2.15;1.27;;;;;;;;;;4993078;28;88405;-59
2023/09/21 13:44:27;;;;;;;1.65;1.40;;;;;;;;;;4992783;28;87943;-59
2023/09/21 13:46:54;;;;;;;4.65;1.40;;;;;;;;;;4991838;28;88797;-59
2023/09/21 13:49:20;;;;;;;2.65;1.10;;;;;;;;;;4994139;28;92486;-59
2023/09/21 13:51:47;;;;;;;2.03;1.50;;;;;;;;;;4993998;28;88550;-59
2023/09/21 13:54:14;;;;;;;2.15;1.60;;;;;;;;;;4994924;28;88773;-59
2023/09/21 13:56:40;;;;;;;4.97;1.50;;;;;;;;;;4995273;28;89195;-59
2023/09/21 13:59:06;;;;;;;4.95;1.60;;;;;;;;;;4995561;28;88046;-59
2023/09/21 14:01:33;;;;;;;3.08;1.58;;;;;;;;;;4994941;28;89020;-59
2023/09/21 14:03:59;;;;;;;1.92;1.83;;;;;;;;;;4994124;28;88097;-58
2023/09/21 14:06:28;;;;;;;4.80;1.52;;;;;;;;;;4988579;28;90049;-59
2023/09/21 14:08:55;;;;;;;1.95;1.42;;;;;;;;;;4988463;28;89184;-59
2023/09/21 14:11:21;;;;;;;4.30;1.45;;;;;;;;;;4984583;28;88307;-59
2023/09/21 14:13:48;;;;;;;1.58;1.45;;;;;;;;;;4991224;28;88731;-59
2023/09/21 14:16:16;;;;;;;5.43;1.60;;;;;;;;;;4995375;28;89082;-59
2023/09/21 14:18:42;;;;;;;3.28;1.40;;;;;;;;;;4995203;28;89737;-59
2023/09/21 14:21:09;;;;;;;4.45;1.33;;;;;;;;;;4995715;28;89660;-60
2023/09/21 14:23:36;;;;;;;1.33;1.02;;;;;;;;;;4990746;28;88124;-59
2023/09/21 14:26:03;;;;;;;1.58;1.10;;;;;;;;;;4996027;28;88700;-60
2023/09/21 14:28:30;;;;;;;1.20;1.10;;;;;;;;;;4986332;28;89934;-60
2023/09/21 14:30:57;;;;;;;1.38;1.27;;;;;;;;;;4992554;28;87862;-59
2023/09/21 14:33:25;;;;;;;2.05;1.13;;;;;;;;;;4985243;28;88116;-60
2023/09/21 14:35:52;;;;;;;2.63;1.25;;;;;;;;;;4995627;28;90370;-62
2023/09/21 14:38:18;;;;;;;7.63;1.45;;;;;;;;;;4991076;28;88812;-59
2023/09/21 14:40:45;;;;;;;5.50;1.40;;;;;;;;;;4991479;28;92099;-63
2023/09/21 14:43:11;;;;;;;3.67;1.35;;;;;;;;;;4992764;28;88137;-63
2023/09/21 14:45:37;;;;;;;1.90;1.30;;;;;;;;;;4993674;28;88948;-62
2023/09/21 14:48:04;;;;;;;1.70;1.17;;;;;;;;;;4994890;28;90020;-62